sensor_id;sensor_type;location;lat;lon;timestamp;pressure;altitude;pressure_sealevel;temperature;humidity
78149;BME280;67396;42.664;23.382;2023-07-31T00:02:15;94589.44;;;21.85;59.04
78149;BME280;67396;42.664;23.382;2023-07-31T00:04:41;94595.66;;;21.80;59.45
78149;BME280;67396;42.664;23.382;2023-07-31T00:07:06;94594.25;;;21.75;60.04
78149;BME280;67396;42.664;23.382;2023-07-31T00:09:32;94602.47;;;21.61;59.88
78149;BME280;67396;42.664;23.382;2023-07-31T00:11:58;94599.66;;;21.43;60.97
78149;BME280;67396;42.664;23.382;2023-07-31T00:14:24;94604.91;;;21.31;61.60
78149;BME280;67396;42.664;23.382;2023-07-31T00:16:49;94614.69;;;21.18;62.31
78149;BME280;67396;42.664;23.382;2023-07-31T00:19:15;94607.38;;;21.20;62.76
78149;BME280;67396;42.664;23.382;2023-07-31T00:21:40;94608.63;;;21.19;62.37
78149;BME280;67396;42.664;23.382;2023-07-31T00:24:06;94594.78;;;21.07;62.53
78149;BME280;67396;42.664;23.382;2023-07-31T00:26:31;94601.06;;;20.89;63.73
78149;BME280;67396;42.664;23.382;2023-07-31T00:28:56;94594.09;;;20.84;63.48
78149;BME280;67396;42.664;23.382;2023-07-31T00:31:22;94588.22;;;20.91;63.21
78149;BME280;67396;42.664;23.382;2023-07-31T00:33:47;94586.81;;;20.96;63.29
78149;BME280;67396;42.664;23.382;2023-07-31T00:36:12;94572.31;;;21.10;62.99
78149;BME280;67396;42.664;23.382;2023-07-31T00:38:38;94577.00;;;21.40;61.83
78149;BME280;67396;42.664;23.382;2023-07-31T00:41:03;94569.28;;;21.45;62.35
78149;BME280;67396;42.664;23.382;2023-07-31T00:43:29;94566.16;;;21.52;62.49
78149;BME280;67396;42.664;23.382;2023-07-31T00:45:54;94572.22;;;21.59;62.29
78149;BME280;67396;42.664;23.382;2023-07-31T00:48:20;94583.25;;;21.72;62.14
78149;BME280;67396;42.664;23.382;2023-07-31T00:50:46;94570.81;;;21.46;63.12
78149;BME280;67396;42.664;23.382;2023-07-31T00:53:13;94577.31;;;21.33;63.54
78149;BME280;67396;42.664;23.382;2023-07-31T00:55:38;94584.91;;;21.24;64.20
78149;BME280;67396;42.664;23.382;2023-07-31T00:58:04;94581.78;;;21.22;64.41
78149;BME280;67396;42.664;23.382;2023-07-31T01:00:29;94574.22;;;21.31;64.34
78149;BME280;67396;42.664;23.382;2023-07-31T01:02:55;94572.97;;;21.23;64.43
78149;BME280;67396;42.664;23.382;2023-07-31T01:05:36;94565.63;;;21.08;65.44
78149;BME280;67396;42.664;23.382;2023-07-31T01:10:45;94554.75;;;21.00;66.14
78149;BME280;67396;42.664;23.382;2023-07-31T01:13:12;94557.25;;;21.08;65.95
78149;BME280;67396;42.664;23.382;2023-07-31T01:15:37;94555.53;;;20.92;66.62
78149;BME280;67396;42.664;23.382;2023-07-31T01:18:03;94562.03;;;20.98;66.44
78149;BME280;67396;42.664;23.382;2023-07-31T01:20:30;94548.72;;;20.93;66.60
78149;BME280;67396;42.664;23.382;2023-07-31T01:26:03;94547.59;;;20.81;67.34
78149;BME280;67396;42.664;23.382;2023-07-31T01:31:07;94546.31;;;20.73;67.74
78149;BME280;67396;42.664;23.382;2023-07-31T01:33:36;94550.03;;;20.70;67.94
78149;BME280;67396;42.664;23.382;2023-07-31T01:36:05;94544.91;;;20.69;68.26
78149;BME280;67396;42.664;23.382;2023-07-31T01:38:31;94542.59;;;20.76;67.99
78149;BME280;67396;42.664;23.382;2023-07-31T01:40:56;94535.50;;;20.84;67.81
78149;BME280;67396;42.664;23.382;2023-07-31T01:43:21;94537.34;;;20.78;68.31
78149;BME280;67396;42.664;23.382;2023-07-31T01:45:56;94530.69;;;20.85;67.90
78149;BME280;67396;42.664;23.382;2023-07-31T01:48:22;94533.00;;;20.86;67.80
78149;BME280;67396;42.664;23.382;2023-07-31T01:50:47;94545.84;;;20.65;68.67
78149;BME280;67396;42.664;23.382;2023-07-31T01:53:12;94540.25;;;20.65;68.93
78149;BME280;67396;42.664;23.382;2023-07-31T01:55:38;94540.50;;;20.49;70.05
78149;BME280;67396;42.664;23.382;2023-07-31T01:58:04;94548.72;;;20.53;69.58
78149;BME280;67396;42.664;23.382;2023-07-31T02:00:29;94552.16;;;20.57;69.45
78149;BME280;67396;42.664;23.382;2023-07-31T02:02:54;94558.78;;;20.50;69.86
78149;BME280;67396;42.664;23.382;2023-07-31T02:05:20;94558.63;;;20.45;70.45
78149;BME280;67396;42.664;23.382;2023-07-31T02:07:45;94557.50;;;20.42;70.66
78149;BME280;67396;42.664;23.382;2023-07-31T02:10:11;94560.00;;;20.40;70.71
78149;BME280;67396;42.664;23.382;2023-07-31T02:12:36;94560.84;;;20.28;71.71
78149;BME280;67396;42.664;23.382;2023-07-31T02:15:02;94555.84;;;20.23;71.67
78149;BME280;67396;42.664;23.382;2023-07-31T02:17:27;94569.16;;;20.19;71.92
78149;BME280;67396;42.664;23.382;2023-07-31T02:19:53;94568.88;;;20.26;72.30
78149;BME280;67396;42.664;23.382;2023-07-31T02:22:19;94568.69;;;20.20;72.21
78149;BME280;67396;42.664;23.382;2023-07-31T02:24:44;94575.34;;;20.23;72.14
78149;BME280;67396;42.664;23.382;2023-07-31T02:27:10;94575.94;;;20.18;72.57
78149;BME280;67396;42.664;23.382;2023-07-31T02:29:35;94579.25;;;20.25;72.42
78149;BME280;67396;42.664;23.382;2023-07-31T02:32:01;94578.47;;;20.25;72.45
78149;BME280;67396;42.664;23.382;2023-07-31T02:34:26;94571.66;;;20.26;72.38
78149;BME280;67396;42.664;23.382;2023-07-31T02:36:51;94572.88;;;20.25;72.55
78149;BME280;67396;42.664;23.382;2023-07-31T02:39:17;94576.00;;;20.27;72.51
78149;BME280;67396;42.664;23.382;2023-07-31T02:41:42;94572.56;;;20.23;72.77
78149;BME280;67396;42.664;23.382;2023-07-31T02:44:07;94570.56;;;20.23;72.97
78149;BME280;67396;42.664;23.382;2023-07-31T02:46:33;94571.44;;;20.42;72.22
78149;BME280;67396;42.664;23.382;2023-07-31T02:48:58;94568.06;;;20.47;71.63
78149;BME280;67396;42.664;23.382;2023-07-31T02:51:24;94579.63;;;20.37;72.00
78149;BME280;67396;42.664;23.382;2023-07-31T02:53:49;94588.09;;;20.33;72.48
78149;BME280;67396;42.664;23.382;2023-07-31T02:56:14;94586.91;;;20.34;72.59
78149;BME280;67396;42.664;23.382;2023-07-31T02:58:40;94582.75;;;20.17;73.24
78149;BME280;67396;42.664;23.382;2023-07-31T03:01:05;94580.00;;;20.26;72.91
78149;BME280;67396;42.664;23.382;2023-07-31T03:03:31;94594.84;;;20.45;72.35
78149;BME280;67396;42.664;23.382;2023-07-31T03:05:56;94586.81;;;20.47;71.99
78149;BME280;67396;42.664;23.382;2023-07-31T03:08:22;94593.25;;;20.35;72.43
78149;BME280;67396;42.664;23.382;2023-07-31T03:10:47;94589.41;;;20.41;72.25
78149;BME280;67396;42.664;23.382;2023-07-31T03:13:12;94588.53;;;20.53;71.43
78149;BME280;67396;42.664;23.382;2023-07-31T03:15:38;94592.84;;;20.45;71.45
78149;BME280;67396;42.664;23.382;2023-07-31T03:18:03;94582.59;;;20.42;71.89
78149;BME280;67396;42.664;23.382;2023-07-31T03:20:29;94589.41;;;20.41;71.67
78149;BME280;67396;42.664;23.382;2023-07-31T03:22:54;94593.25;;;20.35;71.89
78149;BME280;67396;42.664;23.382;2023-07-31T03:25:19;94595.59;;;20.36;72.31
78149;BME280;67396;42.664;23.382;2023-07-31T03:27:45;94599.84;;;20.28;72.46
78149;BME280;67396;42.664;23.382;2023-07-31T03:30:10;94592.47;;;20.34;72.08
78149;BME280;67396;42.664;23.382;2023-07-31T03:32:36;94603.94;;;20.36;72.34
78149;BME280;67396;42.664;23.382;2023-07-31T03:35:01;94603.63;;;20.34;72.43
78149;BME280;67396;42.664;23.382;2023-07-31T03:37:27;94610.19;;;20.40;72.06
78149;BME280;67396;42.664;23.382;2023-07-31T03:39:52;94610.41;;;20.33;72.45
78149;BME280;67396;42.664;23.382;2023-07-31T03:42:18;94614.78;;;20.34;72.43
78149;BME280;67396;42.664;23.382;2023-07-31T03:44:44;94614.41;;;20.32;72.61
78149;BME280;67396;42.664;23.382;2023-07-31T03:47:10;94614.66;;;20.38;72.21
78149;BME280;67396;42.664;23.382;2023-07-31T03:49:36;94600.44;;;20.45;72.09
78149;BME280;67396;42.664;23.382;2023-07-31T03:52:01;94617.03;;;20.48;71.83
78149;BME280;67396;42.664;23.382;2023-07-31T03:54:27;94617.34;;;20.50;71.74
78149;BME280;67396;42.664;23.382;2023-07-31T03:56:52;94621.09;;;20.56;71.46
78149;BME280;67396;42.664;23.382;2023-07-31T03:59:18;94614.00;;;20.64;71.00
78149;BME280;67396;42.664;23.382;2023-07-31T04:01:43;94622.22;;;20.68;70.42
78149;BME280;67396;42.664;23.382;2023-07-31T04:04:09;94620.25;;;20.78;70.40
78149;BME280;67396;42.664;23.382;2023-07-31T04:06:34;94615.78;;;20.80;69.76
78149;BME280;67396;42.664;23.382;2023-07-31T04:08:59;94618.72;;;20.86;69.32
78149;BME280;67396;42.664;23.382;2023-07-31T04:11:25;94613.44;;;20.79;69.94
78149;BME280;67396;42.664;23.382;2023-07-31T04:13:50;94624.91;;;20.81;69.79
78149;BME280;67396;42.664;23.382;2023-07-31T04:16:16;94630.03;;;20.82;69.82
78149;BME280;67396;42.664;23.382;2023-07-31T04:18:41;94630.91;;;20.70;70.23
78149;BME280;67396;42.664;23.382;2023-07-31T04:21:09;94631.06;;;20.67;70.34
78149;BME280;67396;42.664;23.382;2023-07-31T04:23:35;94634.84;;;20.51;70.72
78149;BME280;67396;42.664;23.382;2023-07-31T04:26:00;94633.97;;;20.63;70.38
78149;BME280;67396;42.664;23.382;2023-07-31T04:28:26;94639.97;;;20.52;70.72
78149;BME280;67396;42.664;23.382;2023-07-31T04:30:52;94632.25;;;20.56;70.40
78149;BME280;67396;42.664;23.382;2023-07-31T04:33:18;94638.97;;;20.68;70.01
78149;BME280;67396;42.664;23.382;2023-07-31T04:35:54;94640.34;;;20.63;70.18
78149;BME280;67396;42.664;23.382;2023-07-31T04:38:20;94651.50;;;20.63;70.13
78149;BME280;67396;42.664;23.382;2023-07-31T04:40:46;94641.69;;;20.59;70.15
78149;BME280;67396;42.664;23.382;2023-07-31T04:43:12;94640.00;;;20.61;70.32
78149;BME280;67396;42.664;23.382;2023-07-31T04:45:38;94636.13;;;20.59;70.26
78149;BME280;67396;42.664;23.382;2023-07-31T04:48:03;94646.25;;;20.65;70.14
78149;BME280;67396;42.664;23.382;2023-07-31T04:50:29;94642.22;;;20.67;69.96
78149;BME280;67396;42.664;23.382;2023-07-31T04:52:55;94640.22;;;20.76;69.22
78149;BME280;67396;42.664;23.382;2023-07-31T04:55:30;94636.94;;;20.69;69.19
78149;BME280;67396;42.664;23.382;2023-07-31T04:57:57;94640.50;;;20.69;69.53
78149;BME280;67396;42.664;23.382;2023-07-31T05:00:22;94636.97;;;20.78;69.14
78149;BME280;67396;42.664;23.382;2023-07-31T05:02:48;94630.34;;;20.75;69.01
78149;BME280;67396;42.664;23.382;2023-07-31T05:05:13;94636.69;;;20.85;68.47
78149;BME280;67396;42.664;23.382;2023-07-31T05:07:39;94631.03;;;20.97;67.84
78149;BME280;67396;42.664;23.382;2023-07-31T05:10:05;94620.19;;;20.99;68.02
78149;BME280;67396;42.664;23.382;2023-07-31T05:12:30;94628.72;;;21.05;67.99
78149;BME280;67396;42.664;23.382;2023-07-31T05:14:56;94632.97;;;21.19;67.73
78149;BME280;67396;42.664;23.382;2023-07-31T05:17:21;94638.41;;;21.22;67.95
78149;BME280;67396;42.664;23.382;2023-07-31T05:19:49;94630.28;;;21.06;67.52
78149;BME280;67396;42.664;23.382;2023-07-31T05:22:15;94629.34;;;21.09;67.50
78149;BME280;67396;42.664;23.382;2023-07-31T05:24:40;94632.94;;;21.10;67.40
78149;BME280;67396;42.664;23.382;2023-07-31T05:27:06;94630.47;;;21.21;66.75
78149;BME280;67396;42.664;23.382;2023-07-31T05:29:32;94637.31;;;21.20;66.82
78149;BME280;67396;42.664;23.382;2023-07-31T05:31:57;94631.13;;;21.25;67.17
78149;BME280;67396;42.664;23.382;2023-07-31T05:34:23;94629.13;;;21.34;66.72
78149;BME280;67396;42.664;23.382;2023-07-31T05:36:48;94630.25;;;21.64;66.17
78149;BME280;67396;42.664;23.382;2023-07-31T05:39:14;94630.44;;;21.97;64.38
78149;BME280;67396;42.664;23.382;2023-07-31T05:41:39;94622.19;;;21.85;63.82
78149;BME280;67396;42.664;23.382;2023-07-31T05:44:04;94631.19;;;21.70;63.95
78149;BME280;67396;42.664;23.382;2023-07-31T05:46:30;94628.88;;;21.78;64.11
78149;BME280;67396;42.664;23.382;2023-07-31T05:48:56;94637.84;;;21.73;64.34
78149;BME280;67396;42.664;23.382;2023-07-31T05:51:21;94637.84;;;21.64;64.80
78149;BME280;67396;42.664;23.382;2023-07-31T05:53:47;94632.13;;;22.13;63.45
78149;BME280;67396;42.664;23.382;2023-07-31T05:56:12;94631.03;;;22.20;62.12
78149;BME280;67396;42.664;23.382;2023-07-31T05:58:38;94635.03;;;22.46;61.85
78149;BME280;67396;42.664;23.382;2023-07-31T06:01:03;94634.06;;;22.58;60.84
78149;BME280;67396;42.664;23.382;2023-07-31T06:03:29;94643.22;;;22.68;60.10
78149;BME280;67396;42.664;23.382;2023-07-31T06:05:54;94643.88;;;22.44;60.05
78149;BME280;67396;42.664;23.382;2023-07-31T06:08:19;94642.38;;;22.25;60.22
78149;BME280;67396;42.664;23.382;2023-07-31T06:10:45;94646.91;;;22.13;60.57
78149;BME280;67396;42.664;23.382;2023-07-31T06:13:10;94642.69;;;22.09;60.17
78149;BME280;67396;42.664;23.382;2023-07-31T06:15:36;94638.84;;;22.06;60.71
78149;BME280;67396;42.664;23.382;2023-07-31T06:18:01;94635.06;;;22.19;59.76
78149;BME280;67396;42.664;23.382;2023-07-31T06:20:28;94638.25;;;22.53;58.88
78149;BME280;67396;42.664;23.382;2023-07-31T06:22:54;94639.44;;;22.89;57.97
78149;BME280;67396;42.664;23.382;2023-07-31T06:25:19;94638.63;;;23.31;55.79
78149;BME280;67396;42.664;23.382;2023-07-31T06:27:44;94639.41;;;23.22;55.52
78149;BME280;67396;42.664;23.382;2023-07-31T06:30:11;94637.03;;;23.62;54.68
78149;BME280;67396;42.664;23.382;2023-07-31T06:32:36;94633.84;;;23.93;53.94
78149;BME280;67396;42.664;23.382;2023-07-31T06:35:02;94633.00;;;24.02;53.15
78149;BME280;67396;42.664;23.382;2023-07-31T06:37:37;94631.81;;;24.32;52.25
78149;BME280;67396;42.664;23.382;2023-07-31T06:40:15;94630.84;;;24.21;51.26
78149;BME280;67396;42.664;23.382;2023-07-31T06:42:40;94630.59;;;23.47;53.33
78149;BME280;67396;42.664;23.382;2023-07-31T06:45:07;94629.34;;;23.48;54.02
78149;BME280;67396;42.664;23.382;2023-07-31T06:47:35;94624.66;;;23.93;52.77
78149;BME280;67396;42.664;23.382;2023-07-31T06:50:05;94634.66;;;24.09;52.68
78149;BME280;67396;42.664;23.382;2023-07-31T06:52:30;94638.38;;;24.29;51.52
78149;BME280;67396;42.664;23.382;2023-07-31T06:55:16;94631.63;;;24.51;50.93
78149;BME280;67396;42.664;23.382;2023-07-31T06:57:44;94644.13;;;24.35;51.17
78149;BME280;67396;42.664;23.382;2023-07-31T07:00:10;94648.25;;;24.25;51.75
78149;BME280;67396;42.664;23.382;2023-07-31T07:02:36;94650.22;;;24.33;51.67
78149;BME280;67396;42.664;23.382;2023-07-31T07:05:01;94647.09;;;24.46;51.07
78149;BME280;67396;42.664;23.382;2023-07-31T07:07:28;94645.59;;;24.60;50.58
78149;BME280;67396;42.664;23.382;2023-07-31T07:09:53;94633.97;;;24.96;49.53
78149;BME280;67396;42.664;23.382;2023-07-31T07:12:18;94638.22;;;25.06;48.67
78149;BME280;67396;42.664;23.382;2023-07-31T07:14:44;94642.16;;;25.15;48.80
78149;BME280;67396;42.664;23.382;2023-07-31T07:17:12;94638.69;;;24.90;48.33
78149;BME280;67396;42.664;23.382;2023-07-31T07:19:40;94630.28;;;24.46;49.51
78149;BME280;67396;42.664;23.382;2023-07-31T07:22:06;94639.50;;;24.61;49.43
78149;BME280;67396;42.664;23.382;2023-07-31T07:24:31;94636.84;;;25.02;48.60
78149;BME280;67396;42.664;23.382;2023-07-31T07:27:20;94643.84;;;24.92;49.14
78149;BME280;67396;42.664;23.382;2023-07-31T07:29:58;94636.09;;;25.36;47.62
78149;BME280;67396;42.664;23.382;2023-07-31T07:32:36;94634.00;;;25.52;46.97
78149;BME280;67396;42.664;23.382;2023-07-31T07:38:04;94657.56;;;24.75;47.89
78149;BME280;67396;42.664;23.382;2023-07-31T07:40:29;94651.94;;;24.46;48.73
78149;BME280;67396;42.664;23.382;2023-07-31T07:42:55;94647.09;;;24.46;49.01
78149;BME280;67396;42.664;23.382;2023-07-31T07:48:56;94653.31;;;24.35;49.70
78149;BME280;67396;42.664;23.382;2023-07-31T07:51:22;94649.22;;;24.81;49.22
78149;BME280;67396;42.664;23.382;2023-07-31T07:53:54;94651.88;;;25.34;47.81
78149;BME280;67396;42.664;23.382;2023-07-31T07:56:29;94655.81;;;25.22;47.82
78149;BME280;67396;42.664;23.382;2023-07-31T07:59:05;94666.56;;;25.58;46.75
78149;BME280;67396;42.664;23.382;2023-07-31T08:01:30;94667.03;;;25.92;46.30
78149;BME280;67396;42.664;23.382;2023-07-31T08:03:55;94657.44;;;25.63;45.34
78149;BME280;67396;42.664;23.382;2023-07-31T08:06:30;94651.75;;;25.78;45.31
78149;BME280;67396;42.664;23.382;2023-07-31T08:08:59;94655.50;;;25.55;45.44
78149;BME280;67396;42.664;23.382;2023-07-31T08:11:25;94646.91;;;25.99;44.65
78149;BME280;67396;42.664;23.382;2023-07-31T08:13:50;94658.75;;;26.03;44.55
78149;BME280;67396;42.664;23.382;2023-07-31T08:16:16;94654.91;;;26.46;43.46
78149;BME280;67396;42.664;23.382;2023-07-31T08:18:41;94656.78;;;26.29;44.43
78149;BME280;67396;42.664;23.382;2023-07-31T08:21:08;94645.78;;;26.11;43.60
78149;BME280;67396;42.664;23.382;2023-07-31T08:23:33;94665.19;;;25.68;44.96
78149;BME280;67396;42.664;23.382;2023-07-31T08:25:59;94657.59;;;25.74;45.41
78149;BME280;67396;42.664;23.382;2023-07-31T08:28:25;94652.69;;;26.10;44.15
78149;BME280;67396;42.664;23.382;2023-07-31T08:30:50;94652.59;;;26.04;43.48
78149;BME280;67396;42.664;23.382;2023-07-31T08:33:15;94648.16;;;25.77;44.17
78149;BME280;67396;42.664;23.382;2023-07-31T08:35:41;94647.03;;;26.30;43.57
78149;BME280;67396;42.664;23.382;2023-07-31T08:38:07;94647.44;;;26.69;42.51
78149;BME280;67396;42.664;23.382;2023-07-31T08:40:36;94651.97;;;26.87;41.56
78149;BME280;67396;42.664;23.382;2023-07-31T08:43:02;94651.47;;;26.88;41.48
78149;BME280;67396;42.664;23.382;2023-07-31T08:45:28;94645.56;;;27.18;41.54
78149;BME280;67396;42.664;23.382;2023-07-31T08:47:56;94648.09;;;27.47;40.55
78149;BME280;67396;42.664;23.382;2023-07-31T08:50:22;94646.50;;;27.41;39.75
78149;BME280;67396;42.664;23.382;2023-07-31T08:52:49;94648.06;;;27.42;39.87
78149;BME280;67396;42.664;23.382;2023-07-31T08:55:15;94646.13;;;27.22;40.27
78149;BME280;67396;42.664;23.382;2023-07-31T08:57:42;94641.94;;;27.49;39.57
78149;BME280;67396;42.664;23.382;2023-07-31T09:00:09;94642.16;;;27.40;39.70
78149;BME280;67396;42.664;23.382;2023-07-31T09:03:02;94654.13;;;26.72;41.04
78149;BME280;67396;42.664;23.382;2023-07-31T09:05:30;94648.53;;;26.05;42.29
78149;BME280;67396;42.664;23.382;2023-07-31T09:07:57;94648.94;;;25.58;42.78
78149;BME280;67396;42.664;23.382;2023-07-31T09:10:23;94635.94;;;26.21;42.43
78149;BME280;67396;42.664;23.382;2023-07-31T09:12:51;94634.44;;;26.26;41.96
78149;BME280;67396;42.664;23.382;2023-07-31T09:15:17;94634.25;;;26.81;41.36
78149;BME280;67396;42.664;23.382;2023-07-31T09:17:42;94634.19;;;27.38;40.39
78149;BME280;67396;42.664;23.382;2023-07-31T09:20:20;94630.28;;;27.67;38.84
78149;BME280;67396;42.664;23.382;2023-07-31T09:22:48;94635.31;;;27.52;39.50
78149;BME280;67396;42.664;23.382;2023-07-31T09:25:24;94631.81;;;27.25;39.14
78149;BME280;67396;42.664;23.382;2023-07-31T09:27:54;94630.59;;;27.38;39.29
78149;BME280;67396;42.664;23.382;2023-07-31T09:30:21;94617.63;;;27.99;38.10
78149;BME280;67396;42.664;23.382;2023-07-31T09:32:48;94629.69;;;28.00;37.74
78149;BME280;67396;42.664;23.382;2023-07-31T09:35:34;94621.28;;;27.63;38.50
78149;BME280;67396;42.664;23.382;2023-07-31T09:38:03;94614.75;;;27.46;38.34
78149;BME280;67396;42.664;23.382;2023-07-31T09:40:34;94621.50;;;27.54;38.14
78149;BME280;67396;42.664;23.382;2023-07-31T09:43:23;94622.16;;;28.51;36.53
78149;BME280;67396;42.664;23.382;2023-07-31T09:45:48;94628.63;;;29.29;35.26
78149;BME280;67396;42.664;23.382;2023-07-31T09:48:18;94625.03;;;29.51;34.19
78149;BME280;67396;42.664;23.382;2023-07-31T09:50:46;94613.34;;;29.93;33.40
78149;BME280;67396;42.664;23.382;2023-07-31T09:53:12;94602.78;;;31.53;30.54
78149;BME280;67396;42.664;23.382;2023-07-31T09:55:39;94603.94;;;32.36;29.54
78149;BME280;67396;42.664;23.382;2023-07-31T09:58:07;94608.66;;;31.85;29.77
78149;BME280;67396;42.664;23.382;2023-07-31T10:00:33;94609.75;;;30.56;32.19
78149;BME280;67396;42.664;23.382;2023-07-31T10:03:00;94596.31;;;32.25;29.60
78149;BME280;67396;42.664;23.382;2023-07-31T10:05:48;94590.03;;;33.34;28.01
78149;BME280;67396;42.664;23.382;2023-07-31T10:08:15;94600.34;;;33.95;26.74
78149;BME280;67396;42.664;23.382;2023-07-31T10:10:43;94597.69;;;34.10;26.69
78149;BME280;67396;42.664;23.382;2023-07-31T10:13:09;94605.44;;;34.23;26.21
78149;BME280;67396;42.664;23.382;2023-07-31T10:15:35;94596.03;;;34.41;25.58
78149;BME280;67396;42.664;23.382;2023-07-31T10:18:01;94597.34;;;34.40;25.72
78149;BME280;67396;42.664;23.382;2023-07-31T10:20:28;94598.09;;;34.41;25.28
78149;BME280;67396;42.664;23.382;2023-07-31T10:22:57;94592.75;;;34.37;25.09
78149;BME280;67396;42.664;23.382;2023-07-31T10:25:26;94601.03;;;34.48;25.60
78149;BME280;67396;42.664;23.382;2023-07-31T10:27:53;94595.81;;;34.39;25.39
78149;BME280;67396;42.664;23.382;2023-07-31T10:30:22;94594.72;;;31.02;29.16
78149;BME280;67396;42.664;23.382;2023-07-31T10:32:51;94595.38;;;31.20;29.70
78149;BME280;67396;42.664;23.382;2023-07-31T10:35:17;94594.00;;;32.24;28.39
78149;BME280;67396;42.664;23.382;2023-07-31T10:37:43;94598.31;;;32.68;27.84
78149;BME280;67396;42.664;23.382;2023-07-31T10:40:15;94594.00;;;32.24;27.87
78149;BME280;67396;42.664;23.382;2023-07-31T10:45:41;94578.31;;;32.55;27.84
78149;BME280;67396;42.664;23.382;2023-07-31T10:48:13;94576.31;;;33.19;26.59
78149;BME280;67396;42.664;23.382;2023-07-31T10:50:48;94569.72;;;33.56;26.14
78149;BME280;67396;42.664;23.382;2023-07-31T10:53:29;94573.88;;;33.42;25.76
78149;BME280;67396;42.664;23.382;2023-07-31T10:56:03;94567.53;;;33.62;25.76
78149;BME280;67396;42.664;23.382;2023-07-31T10:58:30;94566.31;;;33.44;25.65
78149;BME280;67396;42.664;23.382;2023-07-31T11:01:14;94558.81;;;32.83;26.96
78149;BME280;67396;42.664;23.382;2023-07-31T11:06:08;94577.25;;;29.36;31.84
78149;BME280;67396;42.664;23.382;2023-07-31T11:08:35;94571.88;;;28.83;33.42
78149;BME280;67396;42.664;23.382;2023-07-31T11:13:27;94556.13;;;27.07;36.19
78149;BME280;67396;42.664;23.382;2023-07-31T11:15:53;94571.50;;;26.80;37.25
78149;BME280;67396;42.664;23.382;2023-07-31T11:18:19;94557.25;;;26.32;37.45
78149;BME280;67396;42.664;23.382;2023-07-31T11:20:44;94548.44;;;26.19;37.47
78149;BME280;67396;42.664;23.382;2023-07-31T11:23:10;94562.09;;;26.06;37.42
78149;BME280;67396;42.664;23.382;2023-07-31T11:25:37;94557.56;;;26.14;37.24
78149;BME280;67396;42.664;23.382;2023-07-31T11:28:13;94557.31;;;26.12;37.71
78149;BME280;67396;42.664;23.382;2023-07-31T11:30:39;94544.59;;;26.22;37.42
78149;BME280;67396;42.664;23.382;2023-07-31T11:33:06;94552.00;;;26.19;37.87
78149;BME280;67396;42.664;23.382;2023-07-31T11:35:33;94557.91;;;26.21;37.46
78149;BME280;67396;42.664;23.382;2023-07-31T11:38:00;94553.13;;;26.53;37.24
78149;BME280;67396;42.664;23.382;2023-07-31T11:40:28;94546.09;;;26.75;36.72
78149;BME280;67396;42.664;23.382;2023-07-31T11:43:04;94550.63;;;26.61;37.14
78149;BME280;67396;42.664;23.382;2023-07-31T11:45:30;94551.75;;;26.43;37.09
78149;BME280;67396;42.664;23.382;2023-07-31T11:47:56;94546.25;;;26.29;37.20
78149;BME280;67396;42.664;23.382;2023-07-31T11:50:23;94540.50;;;26.43;37.19
78149;BME280;67396;42.664;23.382;2023-07-31T11:52:59;94541.41;;;26.60;36.96
78149;BME280;67396;42.664;23.382;2023-07-31T11:55:26;94543.94;;;26.58;38.20
78149;BME280;67396;42.664;23.382;2023-07-31T11:57:54;94556.25;;;26.61;38.28
78149;BME280;67396;42.664;23.382;2023-07-31T12:00:21;94552.34;;;26.53;37.96
78149;BME280;67396;42.664;23.382;2023-07-31T12:02:47;94538.44;;;26.18;38.19
78149;BME280;67396;42.664;23.382;2023-07-31T12:05:13;94542.47;;;26.11;38.50
78149;BME280;67396;42.664;23.382;2023-07-31T12:07:55;94533.69;;;26.04;38.65
78149;BME280;67396;42.664;23.382;2023-07-31T12:10:31;94536.25;;;26.28;38.25
78149;BME280;67396;42.664;23.382;2023-07-31T12:13:02;94541.75;;;26.42;37.99
78149;BME280;67396;42.664;23.382;2023-07-31T12:15:38;94533.91;;;26.52;37.85
78149;BME280;67396;42.664;23.382;2023-07-31T12:18:06;94530.13;;;26.60;37.67
78149;BME280;67396;42.664;23.382;2023-07-31T12:20:33;94529.22;;;26.75;37.85
78149;BME280;67396;42.664;23.382;2023-07-31T12:23:08;94526.66;;;26.77;37.24
78149;BME280;67396;42.664;23.382;2023-07-31T12:25:40;94525.91;;;26.76;37.39
78149;BME280;67396;42.664;23.382;2023-07-31T12:28:06;94516.09;;;26.66;37.46
78149;BME280;67396;42.664;23.382;2023-07-31T12:30:37;94511.78;;;26.71;37.35
78149;BME280;67396;42.664;23.382;2023-07-31T12:33:13;94523.94;;;26.56;37.55
78149;BME280;67396;42.664;23.382;2023-07-31T12:36:03;94520.78;;;26.43;37.91
78149;BME280;67396;42.664;23.382;2023-07-31T12:38:30;94514.94;;;26.21;38.95
78149;BME280;67396;42.664;23.382;2023-07-31T12:40:56;94519.06;;;26.00;38.34
78149;BME280;67396;42.664;23.382;2023-07-31T12:43:21;94519.88;;;25.80;38.58
78149;BME280;67396;42.664;23.382;2023-07-31T12:45:47;94519.41;;;25.61;39.08
78149;BME280;67396;42.664;23.382;2023-07-31T12:48:13;94511.25;;;25.63;39.32
78149;BME280;67396;42.664;23.382;2023-07-31T12:50:39;94487.44;;;25.59;38.99
78149;BME280;67396;42.664;23.382;2023-07-31T12:53:05;94506.41;;;25.64;39.21
78149;BME280;67396;42.664;23.382;2023-07-31T12:55:31;94505.09;;;25.59;39.02
78149;BME280;67396;42.664;23.382;2023-07-31T12:58:04;94500.03;;;25.63;39.04
78149;BME280;67396;42.664;23.382;2023-07-31T13:00:29;94494.72;;;25.71;38.85
78149;BME280;67396;42.664;23.382;2023-07-31T13:02:55;94489.59;;;25.95;38.36
78149;BME280;67396;42.664;23.382;2023-07-31T13:05:21;94490.13;;;26.19;38.17
78149;BME280;67396;42.664;23.382;2023-07-31T13:07:47;94490.91;;;26.26;37.78
78149;BME280;67396;42.664;23.382;2023-07-31T13:10:13;94484.69;;;26.16;38.17
78149;BME280;67396;42.664;23.382;2023-07-31T13:12:39;94489.56;;;26.15;38.50
78149;BME280;67396;42.664;23.382;2023-07-31T13:15:09;94483.47;;;26.22;38.45